Date,TemperatureHighF,TemperatureAvgF,TemperatureLowF,DewpointHighF,DewpointAvgF,DewpointLowF,HumidityHigh,HumidityAvg,HumidityLow,PressureMaxIn,PressureMinIn,WindSpeedMaxMPH,WindSpeedAvgMPH,GustSpeedMaxMPH,PrecipitationSumIn
2013-6-13,79,79,79,-100,-100,-100,0,0,100,0.00,40.00,0,-999,0,0.00
2013-6-16,68,67,67,-100,-100,-100,0,0,100,0.00,40.00,0,-999,0,0.00
2013-6-17,80,80,80,-100,-100,-100,0,0,100,0.00,40.00,0,-999,0,0.00
2013-6-18,72,72,72,-100,-100,-100,0,0,100,0.00,40.00,0,-999,0,0.00
2013-6-19,83,80,78,-100,-100,-100,0,0,100,0.00,40.00,0,-999,0,0.00
2013-6-20,70,68,65,-100,-100,-100,0,0,100,0.00,40.00,0,-999,0,0.00
2013-6-25,83,83,83,-100,-100,-100,0,0,100,0.00,40.00,0,-999,0,0.00
2013-6-27,74,74,74,-100,-100,-100,0,0,100,0.00,40.00,0,-999,0,0.00
2013-7-2,79,79,79,-100,-100,-100,0,0,100,0.00,40.00,0,-999,0,0.00
2013-7-8,82,82,82,-100,-100,-100,0,0,100,0.00,40.00,0,-999,0,0.00
2013-7-12,79,79,79,-100,-100,-100,0,0,100,0.00,40.00,0,-999,0,0.00
2013-7-17,86,86,86,-100,-100,-100,0,0,100,0.00,40.00,0,-999,0,0.00
2013-7-18,94,94,94,-100,-100,-100,0,0,100,0.00,40.00,0,-999,0,0.00
2013-7-19,92,92,92,-100,-100,-100,0,0,100,0.00,40.00,0,-999,0,0.00
2013-7-23,76,76,76,-100,-100,-100,0,0,100,0.00,40.00,0,-999,0,0.00
2013-7-24,72,72,72,-100,-100,-100,0,0,100,0.00,40.00,0,-999,0,0.00
2013-7-25,80,80,80,-100,-100,-100,0,0,100,0.00,40.00,0,-999,0,0.00
2013-8-1,81,81,81,-100,-100,-100,0,0,100,0.00,40.00,0,-999,0,0.00
2013-8-7,80,80,80,-100,-100,-100,0,0,100,0.00,40.00,0,-999,0,0.00
2013-8-12,70,68,67,-100,-100,-100,0,0,100,0.00,40.00,0,-999,0,0.00
2013-8-13,71,63,59,-100,-100,-100,0,0,100,0.00,40.00,0,-999,0,0.00
2013-8-14,73,61,50,-100,-100,-100,0,0,100,0.00,40.00,0,-999,0,0.00
2013-8-15,75,65,56,-100,-100,-100,0,0,100,0.00,40.00,0,-999,0,0.00
2013-8-16,79,68,54,-100,-100,-100,0,0,100,0.00,40.00,0,-999,0,0.00
2013-8-17,80,74,62,-100,-100,-100,0,0,100,0.00,40.00,0,-999,0,0.00
2013-8-18,81,69,55,-100,-100,-100,0,0,100,0.00,40.00,0,-999,0,0.00
2013-8-19,83,70,60,-100,-100,-100,0,0,100,0.00,40.00,0,-999,0,0.00
2013-8-20,82,76,70,-100,-100,-100,0,0,100,0.00,40.00,0,-999,0,0.00
2013-8-21,89,81,73,-100,-100,-100,0,0,100,0.00,40.00,0,-999,0,0.00
2013-8-22,78,75,71,-100,-100,-100,0,0,100,0.00,40.00,0,-999,0,0.00
2013-8-23,84,74,63,-100,-100,-100,0,0,100,0.00,40.00,0,-999,0,0.00
2013-8-24,86,75,65,-100,-100,-100,0,0,100,0.00,40.00,0,-999,0,0.00
2013-8-25,89,81,71,-100,-100,-100,0,0,100,0.00,40.00,0,-999,0,0.00
2013-8-26,93,78,69,-100,-100,-100,0,0,100,0.00,40.00,0,-999,0,0.00
2013-8-27,94,83,76,-100,-100,-100,0,0,100,0.00,40.00,0,-999,0,0.00
2013-8-28,92,89,86,-100,-100,-100,0,0,100,0.00,40.00,0,-999,0,0.00
2013-8-29,87,80,75,-100,-100,-100,0,0,100,0.00,40.00,0,-999,0,0.00
2013-8-30,99,88,81,-100,-100,-100,0,0,100,0.00,40.00,0,-999,0,0.00
2013-8-31,84,78,74,-100,-100,-100,0,0,100,0.00,40.00,0,-999,0,0.00
2013-9-1,89,75,68,-100,-100,-100,0,0,100,0.00,40.00,0,-999,0,0.00
2013-9-2,76,72,65,-100,-100,-100,0,0,100,0.00,40.00,0,-999,0,0.00
2013-9-3,76,64,53,-100,-100,-100,0,0,100,0.00,40.00,0,-999,0,0.00
2013-9-4,86,70,53,-100,-100,-100,0,0,100,0.00,40.00,0,-999,0,0.00
2013-9-5,85,72,63,-100,-100,-100,0,0,100,0.00,40.00,0,-999,0,0.00
2013-9-6,88,76,64,-100,-100,-100,0,0,100,0.00,40.00,0,-999,0,0.00
2013-9-7,91,77,67,-100,-100,-100,0,0,100,0.00,40.00,0,-999,0,0.00
2013-9-8,86,82,74,-100,-100,-100,0,0,100,0.00,40.00,0,-999,0,0.00
2013-9-9,97,80,72,-100,-100,-100,0,0,100,0.00,40.00,0,-999,0,0.00
2013-9-10,97,82,69,-100,-100,-100,0,0,100,0.00,40.00,0,-999,0,0.00
2013-9-11,83,79,75,-100,-100,-100,0,0,100,0.00,40.00,0,-999,0,0.00
2013-9-12,74,69,64,-100,-100,-100,0,0,100,0.00,40.00,0,-999,0,0.00
2013-9-16,54,54,54,-100,-100,-100,0,0,100,0.00,40.00,0,-999,0,0.00
2013-10-4,70,70,70,-100,-100,-100,0,0,100,0.00,40.00,0,-999,0,0.00
2013-10-5,71,71,71,-100,-100,-100,0,0,100,0.00,40.00,0,-999,0,0.00
2013-10-7,44,44,44,-100,-100,-100,0,0,100,0.00,40.00,0,-999,0,0.00
2013-10-21,43,43,43,-100,-100,-100,0,0,100,0.00,40.00,0,-999,0,0.00
2013-11-5,54,54,54,-100,-100,-100,0,0,100,0.00,40.00,0,-999,0,0.00